Furlow, Arkansas
Current Conditions -  °F | °C
As of 2:58 AM on Monday 20 Oct 2014 (Local Time) from KLRF Reporting Station
Few Clouds Few Clouds  
Wind Chill: 46°   Ceiling: Unl
Heat Index: 46°   Visibility: 10mi
Dew Point: 44°   Wind: 3mph
Humidity: 93%   Direction: 260°W
Pressure: 30.08"   Gusts: NA
Location:  34.7557°N, 91.9476°W
Report Text: KLRF 200758Z AUTO 26003KT 10SM FEW150 08/07 A3008 RMK AO2 SLP188 T00770067
Loading
Personal Weather Stations






























Interactive Weather Map
Tropical Storm Tracking
New forecast layout! Learn more

10-Day Weather Forecast

Advertisements
Track Severe Weather on mobile